Time;durP1;ratioP1;P1;durP2;ratioP2;P2;SDS_P1;SDS_P2;PMS_P1;PMS_P2;Temp;Humidity;BMP_temperature;BMP_pressure;BME280_temperature;BME280_humidity;BME280_pressure;Samples;Min_cycle;Max_cycle;Signal;HPM_P1;HPM_P2
2023/01/30 00:00:01;;;;;;;27.13;16.27;;;;;;;0.45;100.00;101013.78;5055257;28;20229;-75
2023/01/30 00:02:29;;;;;;;26.25;15.20;;;;;;;0.36;100.00;101020.81;5056467;28;20211;-77
2023/01/30 00:04:56;;;;;;;23.15;14.55;;;;;;;0.42;100.00;101009.34;5037636;28;20233;-75
2023/01/30 00:07:22;;;;;;;27.45;15.68;;;;;;;0.40;100.00;101008.47;5037158;28;20203;-75
2023/01/30 00:09:49;;;;;;;24.70;15.05;;;;;;;0.40;100.00;101005.81;5054491;28;20201;-76
2023/01/30 00:12:15;;;;;;;22.00;14.85;;;;;;;0.37;100.00;100996.09;5060224;28;20678;-75
2023/01/30 00:14:42;;;;;;;21.35;14.60;;;;;;;0.37;100.00;101005.81;5057076;28;20239;-75
2023/01/30 00:17:08;;;;;;;21.13;13.73;;;;;;;0.38;100.00;101012.84;5055961;28;20212;-75
2023/01/30 00:19:36;;;;;;;24.20;14.05;;;;;;;0.44;100.00;101010.25;5037379;28;20235;-76
2023/01/30 00:22:03;;;;;;;27.98;16.35;;;;;;;0.48;100.00;100993.50;5053968;28;20547;-75
2023/01/30 00:24:30;;;;;;;26.35;15.77;;;;;;;0.50;100.00;100989.09;5053529;28;20227;-76
2023/01/30 00:26:56;;;;;;;22.90;13.30;;;;;;;0.52;100.00;100975.84;5053419;28;20253;-76
2023/01/30 00:29:23;;;;;;;26.25;15.65;;;;;;;0.47;100.00;100966.97;5053292;28;20203;-76
2023/01/30 00:31:49;;;;;;;24.92;14.05;;;;;;;0.58;100.00;100952.88;5053662;28;20211;-75
2023/01/30 00:34:16;;;;;;;22.35;14.00;;;;;;;0.52;100.00;100952.88;5053865;28;20203;-76
2023/01/30 00:36:44;;;;;;;29.45;16.52;;;;;;;0.48;100.00;100929.00;5056101;28;20272;-75
2023/01/30 00:39:11;;;;;;;24.75;13.55;;;;;;;0.59;100.00;100924.66;5059704;28;20617;-76
2023/01/30 00:47:08;;;;;;;25.17;13.98;;;;;;;0.57;100.00;100927.28;5013760;28;20198;-76
2023/01/30 00:49:35;;;;;;;25.15;14.43;;;;;;;0.57;100.00;100929.94;5010458;28;20301;-76
2023/01/30 00:52:04;;;;;;;27.60;14.48;;;;;;;0.54;100.00;100919.31;5010870;28;20210;-75
2023/01/30 00:54:31;;;;;;;22.42;13.65;;;;;;;0.64;100.00;100914.06;5010726;28;20237;-75
2023/01/30 00:56:57;;;;;;;23.83;14.10;;;;;;;0.69;100.00;100921.13;5010579;28;20208;-75
2023/01/30 00:59:24;;;;;;;25.08;14.85;;;;;;;0.67;100.00;100922.00;5011671;28;20236;-76
2023/01/30 01:01:50;;;;;;;27.02;14.07;;;;;;;0.72;100.00;100910.50;5012387;28;20228;-75
2023/01/30 01:04:17;;;;;;;24.67;13.95;;;;;;;0.78;100.00;100922.94;5011111;28;20204;-75
2023/01/30 01:06:43;;;;;;;21.48;12.00;;;;;;;0.76;100.00;100909.66;5017472;28;20275;-76
2023/01/30 01:09:11;;;;;;;24.13;14.75;;;;;;;0.78;100.00;100912.31;5030786;28;20221;-76
2023/01/30 01:11:38;;;;;;;24.35;14.27;;;;;;;0.79;100.00;100922.94;5034467;28;20195;-76
2023/01/30 01:14:06;;;;;;;23.98;14.82;;;;;;;0.79;100.00;100919.38;5033182;28;20205;-76
2023/01/30 01:16:35;;;;;;;28.95;14.50;;;;;;;0.80;100.00;100916.75;5019531;28;20295;-76
2023/01/30 01:19:01;;;;;;;28.27;15.52;;;;;;;0.67;100.00;100898.16;5019868;28;20211;-76
2023/01/30 01:21:28;;;;;;;25.90;14.02;;;;;;;0.73;100.00;100914.97;5015052;28;20286;-76
2023/01/30 01:23:57;;;;;;;22.77;13.57;;;;;;;0.72;100.00;100888.44;5028224;28;20701;-75
2023/01/30 01:26:25;;;;;;;23.02;13.40;;;;;;;0.81;100.00;100902.63;5052575;28;20230;-76
2023/01/30 01:28:55;;;;;;;27.17;15.27;;;;;;;0.82;100.00;100882.28;5052419;28;20576;-75
2023/01/30 01:31:22;;;;;;;27.88;15.15;;;;;;;0.76;100.00;100861.03;5052816;28;20204;-76
2023/01/30 01:33:49;;;;;;;25.45;14.85;;;;;;;0.81;100.00;100875.19;5052801;28;20211;-76
2023/01/30 01:36:16;;;;;;;26.00;14.82;;;;;;;0.85;100.00;100876.09;5053532;28;20311;-75
2023/01/30 01:38:43;;;;;;;26.52;15.55;;;;;;;0.89;100.00;100872.56;5052557;28;20206;-75
2023/01/30 01:41:09;;;;;;;27.90;14.63;;;;;;;0.89;100.00;100877.88;5053404;28;20651;-75
2023/01/30 01:43:56;;;;;;;24.45;12.45;;;;;;;0.89;100.00;100867.28;5053323;28;20260;-75
2023/01/30 01:46:25;;;;;;;23.17;14.43;;;;;;;0.93;100.00;100872.59;5052801;28;20233;-75
2023/01/30 01:48:56;;;;;;;31.70;15.05;;;;;;;0.92;100.00;100862.84;5052633;28;20213;-77
2023/01/30 01:51:29;;;;;;;34.65;15.75;;;;;;;0.93;100.00;100872.59;5053066;28;20211;-77
2023/01/30 01:54:01;;;;;;;24.00;13.63;;;;;;;0.95;100.00;100851.34;5053071;28;20685;-76
2023/01/30 01:56:29;;;;;;;23.90;12.65;;;;;;;0.95;100.00;100856.66;5052527;28;20232;-76
2023/01/30 01:59:01;;;;;;;24.63;13.23;;;;;;;0.96;100.00;100846.06;5052550;28;20211;-76
2023/01/30 02:01:29;;;;;;;23.48;13.02;;;;;;;0.97;100.00;100837.22;5056028;28;20235;-75
2023/01/30 02:04:00;;;;;;;19.88;10.38;;;;;;;0.99;100.00;100826.59;5053098;28;20206;-75
2023/01/30 02:06:28;;;;;;;24.45;14.57;;;;;;;0.99;100.00;100835.44;5052175;28;20224;-77
2023/01/30 02:09:00;;;;;;;27.95;15.35;;;;;;;1.03;100.00;100831.91;5051528;28;20203;-75
2023/01/30 02:11:34;;;;;;;23.48;13.13;;;;;;;0.97;100.00;100813.34;5052576;28;20214;-75
2023/01/30 02:14:03;;;;;;;25.52;14.55;;;;;;;0.96;100.00;100798.31;5052422;28;20277;-76
2023/01/30 02:16:29;;;;;;;23.38;12.90;;;;;;;1.00;100.00;100793.91;5052380;28;20710;-76
2023/01/30 02:18:56;;;;;;;27.42;13.77;;;;;;;1.00;100.00;100794.78;5051722;28;20216;-75
2023/01/30 02:22:02;;;;;;;23.20;11.77;;;;;;;1.06;100.00;100808.91;5054925;28;20235;-76
2023/01/30 02:24:49;;;;;;;22.13;13.25;;;;;;;1.01;100.00;100814.22;5049416;28;20222;-76
2023/01/30 02:27:23;;;;;;;20.33;11.43;;;;;;;1.03;100.00;100810.69;5056386;28;20189;-76
2023/01/30 02:30:29;;;;;;;22.90;12.38;;;;;;;1.06;100.00;100803.63;5056000;28;20208;-75
2023/01/30 02:33:10;;;;;;;20.63;11.55;;;;;;;1.11;100.00;100788.56;5055849;28;20620;-76
2023/01/30 02:35:51;;;;;;;18.27;10.65;;;;;;;1.09;100.00;100777.09;5056607;28;20311;-75
2023/01/30 02:38:31;;;;;;;23.75;13.77;;;;;;;1.04;100.00;100772.69;5054934;28;20591;-76
2023/01/30 02:41:08;;;;;;;22.50;10.98;;;;;;;1.06;100.00;100787.69;5056222;28;20224;-76
2023/01/30 02:43:44;;;;;;;20.23;10.93;;;;;;;1.09;100.00;100787.72;5058459;28;20578;-76
2023/01/30 02:46:15;;;;;;;19.15;12.98;;;;;;;1.07;100.00;100776.22;5058227;28;20720;-75
2023/01/30 02:48:49;;;;;;;20.05;11.98;;;;;;;1.08;100.00;100785.94;5055057;28;20684;-75
2023/01/30 02:51:19;;;;;;;23.00;13.63;;;;;;;1.04;100.00;100777.97;5070167;28;20182;-74
2023/01/30 02:53:48;;;;;;;20.98;11.07;;;;;;;1.03;100.00;100764.72;5070561;28;20191;-76
2023/01/30 02:56:15;;;;;;;27.70;13.88;;;;;;;1.04;100.00;100780.63;5057749;28;20811;-77
2023/01/30 02:58:47;;;;;;;21.63;14.15;;;;;;;1.03;100.00;100786.81;5037983;28;20285;-75
2023/01/30 03:01:44;;;;;;;23.63;14.40;;;;;;;1.02;100.00;100784.19;5039871;28;20313;-75
2023/01/30 03:04:40;;;;;;;23.15;13.77;;;;;;;0.98;100.00;100801.84;5039648;28;20245;-75
2023/01/30 03:07:22;;;;;;;27.17;14.48;;;;;;;1.03;100.00;100799.19;5037836;28;20256;-75
2023/01/30 03:09:56;;;;;;;25.27;13.27;;;;;;;1.03;100.00;100794.75;5040283;28;20254;-76
2023/01/30 03:12:37;;;;;;;26.23;12.90;;;;;;;0.98;100.00;100791.25;5039279;28;20189;-75
2023/01/30 03:15:10;;;;;;;27.80;14.63;;;;;;;0.96;100.00;100798.31;5037154;28;20231;-76
2023/01/30 03:17:40;;;;;;;27.35;13.25;;;;;;;0.98;100.00;100799.19;5036369;28;20257;-74
2023/01/30 03:20:10;;;;;;;21.23;11.27;;;;;;;1.00;100.00;100789.47;5034816;28;20711;-77
2023/01/30 03:22:37;;;;;;;24.63;14.02;;;;;;;0.97;100.00;100792.13;5034530;28;20209;-74
2023/01/30 03:25:04;;;;;;;29.45;14.05;;;;;;;1.01;100.00;100782.41;5035235;28;20219;-75
2023/01/30 03:27:30;;;;;;;27.70;15.32;;;;;;;1.01;100.00;100777.09;5035164;28;20298;-76
2023/01/30 03:29:57;;;;;;;30.55;15.55;;;;;;;1.02;100.00;100789.47;5037717;28;20206;-75
2023/01/30 03:32:23;;;;;;;28.00;14.73;;;;;;;0.99;100.00;100769.13;5040353;28;20247;-74
2023/01/30 03:34:50;;;;;;;25.13;14.13;;;;;;;1.07;100.00;100778.88;5041970;28;20242;-74
2023/01/30 03:37:18;;;;;;;26.52;14.27;;;;;;;1.08;100.00;100781.50;5040507;28;20203;-76
2023/01/30 03:39:45;;;;;;;25.73;14.65;;;;;;;1.05;100.00;100773.56;5039595;28;20209;-75
2023/01/30 03:42:11;;;;;;;25.85;14.15;;;;;;;1.11;100.00;100768.25;5039945;28;20204;-76
2023/01/30 03:44:38;;;;;;;23.85;14.02;;;;;;;1.10;100.00;100765.59;5036470;28;20319;-75
2023/01/30 03:47:05;;;;;;;26.13;14.73;;;;;;;1.08;100.00;100762.06;5036285;28;20207;-75
2023/01/30 03:49:31;;;;;;;26.05;14.77;;;;;;;1.07;100.00;100747.91;5034098;28;20297;-76
2023/01/30 03:51:58;;;;;;;29.85;16.67;;;;;;;1.12;100.00;100748.78;5033964;28;20683;-77
2023/01/30 03:54:26;;;;;;;22.23;12.57;;;;;;;1.12;100.00;100747.91;5033711;28;20212;-76
2023/01/30 03:56:52;;;;;;;28.60;15.43;;;;;;;1.12;100.00;100740.81;5037671;28;20635;-76
2023/01/30 03:59:19;;;;;;;23.52;14.02;;;;;;;1.17;100.00;100730.22;5054075;28;20588;-76
2023/01/30 04:01:45;;;;;;;28.02;14.85;;;;;;;1.15;100.00;100737.28;5055263;28;20223;-76
2023/01/30 04:04:12;;;;;;;26.25;14.95;;;;;;;1.15;100.00;100732.84;5055494;28;20203;-75
2023/01/30 04:06:38;;;;;;;23.23;11.57;;;;;;;1.15;100.00;100724.00;5055399;28;20208;-76
2023/01/30 04:09:05;;;;;;;24.42;14.63;;;;;;;1.15;100.00;100721.38;5054102;28;20196;-76
2023/01/30 04:11:33;;;;;;;25.73;15.20;;;;;;;1.18;100.00;100722.25;5054344;28;20200;-74
2023/01/30 04:14:00;;;;;;;26.00;14.77;;;;;;;1.21;100.00;100730.19;5054089;28;20289;-74
2023/01/30 04:16:27;;;;;;;23.88;13.90;;;;;;;1.19;100.00;100729.31;5058272;28;20215;-74
2023/01/30 04:18:54;;;;;;;28.95;15.15;;;;;;;1.24;100.00;100711.63;5058482;28;20191;-75
2023/01/30 04:21:21;;;;;;;21.70;12.38;;;;;;;1.29;100.00;100711.63;5060498;28;20230;-75
2023/01/30 04:23:47;;;;;;;25.83;13.50;;;;;;;1.21;100.00;100702.78;5059265;28;20300;-75
2023/01/30 04:26:14;;;;;;;24.42;15.02;;;;;;;1.21;100.00;100708.09;5059647;28;20253;-75
2023/01/30 04:28:43;;;;;;;26.00;14.85;;;;;;;1.28;100.00;100711.63;5057440;28;20314;-75
2023/01/30 04:31:10;;;;;;;28.15;13.55;;;;;;;1.25;100.00;100707.22;5057045;28;20203;-75
2023/01/30 04:33:38;;;;;;;26.08;12.48;;;;;;;1.24;100.00;100700.13;5056525;28;20207;-75
2023/01/30 04:36:07;;;;;;;27.67;15.00;;;;;;;1.27;100.00;100710.75;5057149;28;20531;-75
2023/01/30 04:38:35;;;;;;;29.95;16.05;;;;;;;1.28;100.00;100696.56;5056881;28;20258;-74
2023/01/30 04:41:02;;;;;;;31.35;15.70;;;;;;;1.28;100.00;100685.97;5053799;28;20245;-76
2023/01/30 04:43:29;;;;;;;26.73;15.15;;;;;;;1.31;100.00;100701.91;5053418;28;20236;-76
2023/01/30 04:45:57;;;;;;;26.30;14.30;;;;;;;1.24;100.00;100673.59;5053409;28;20225;-76
2023/01/30 04:48:24;;;;;;;26.63;14.70;;;;;;;1.25;100.00;100680.69;5053008;28;20700;-76
2023/01/30 04:50:53;;;;;;;24.35;12.88;;;;;;;1.31;100.00;100664.75;5053910;28;20209;-76
2023/01/30 04:53:20;;;;;;;24.27;13.60;;;;;;;1.32;100.00;100670.94;5054528;28;20212;-76
2023/01/30 04:55:47;;;;;;;19.20;12.10;;;;;;;1.31;100.00;100670.06;5055110;28;20235;-75
2023/01/30 04:58:14;;;;;;;27.35;15.20;;;;;;;1.28;100.00;100658.56;5053682;28;20377;-76
2023/01/30 05:00:40;;;;;;;27.38;14.30;;;;;;;1.27;100.00;100655.03;5054889;28;20224;-75
2023/01/30 05:03:08;;;;;;;24.27;13.23;;;;;;;1.28;100.00;100658.56;5055746;28;20204;-75
2023/01/30 05:05:35;;;;;;;32.97;16.10;;;;;;;1.25;100.00;100651.50;5057108;28;20759;-76
2023/01/30 05:08:01;;;;;;;26.17;14.35;;;;;;;1.28;100.00;100656.78;5055248;28;20213;-75
2023/01/30 05:10:28;;;;;;;31.70;15.13;;;;;;;1.27;100.00;100649.72;5056589;28;20180;-75
2023/01/30 05:12:55;;;;;;;18.55;10.27;;;;;;;1.26;100.00;100642.63;5061679;28;20239;-74
2023/01/30 05:15:22;;;;;;;26.38;14.13;;;;;;;1.29;100.00;100637.31;5065071;28;20224;-75
2023/01/30 05:17:48;;;;;;;34.45;15.48;;;;;;;1.31;100.00;100632.91;5057792;28;20295;-75
2023/01/30 05:20:16;;;;;;;30.58;16.77;;;;;;;1.34;100.00;100635.53;5053493;28;20196;-75
2023/01/30 05:22:43;;;;;;;28.13;15.07;;;;;;;1.33;100.00;100628.44;5054904;28;20660;-75
2023/01/30 05:25:10;;;;;;;27.42;14.13;;;;;;;1.34;100.00;100624.03;5054882;28;20250;-76
2023/01/30 05:27:36;;;;;;;22.02;14.05;;;;;;;1.33;100.00;100631.09;5053377;28;20206;-75
2023/01/30 05:30:03;;;;;;;30.05;15.70;;;;;;;1.37;100.00;100637.28;5055821;28;20211;-76
2023/01/30 05:32:30;;;;;;;26.73;12.15;;;;;;;1.44;100.00;100637.25;5051194;28;20605;-76
2023/01/30 05:34:56;;;;;;;27.70;13.93;;;;;;;1.47;100.00;100633.72;5035048;28;20661;-76
2023/01/30 05:37:25;;;;;;;23.02;13.13;;;;;;;1.46;100.00;100631.94;5035844;28;20295;-75
2023/01/30 05:39:51;;;;;;;30.42;16.92;;;;;;;1.45;100.00;100623.09;5035130;28;20561;-76
2023/01/30 05:42:18;;;;;;;30.35;16.73;;;;;;;1.42;100.00;100617.78;5036724;28;20235;-77
2023/01/30 05:44:44;;;;;;;28.92;16.88;;;;;;;1.42;100.00;100617.78;5042088;28;20227;-75
2023/01/30 05:47:11;;;;;;;27.65;15.13;;;;;;;1.40;100.00;100622.25;5059985;28;20206;-75
2023/01/30 05:49:37;;;;;;;25.25;15.38;;;;;;;1.40;100.00;100610.72;5061071;28;20203;-74
2023/01/30 05:52:04;;;;;;;23.52;13.32;;;;;;;1.42;100.00;100606.28;5061259;28;20210;-74
2023/01/30 05:54:34;;;;;;;26.13;14.57;;;;;;;1.41;100.00;100592.16;5064301;28;20270;-76
2023/01/30 05:57:00;;;;;;;25.98;15.07;;;;;;;1.41;100.00;100593.94;5070664;28;20258;-75
2023/01/30 05:59:27;;;;;;;17.83;12.40;;;;;;;1.36;100.00;100599.25;5070841;28;20203;-76
2023/01/30 06:01:53;;;;;;;30.88;14.95;;;;;;;1.34;100.00;100605.47;5070759;28;20251;-75
2023/01/30 06:04:20;;;;;;;23.98;14.25;;;;;;;1.33;100.00;100606.34;5060470;28;20624;-77
2023/01/30 06:06:49;;;;;;;26.17;15.23;;;;;;;1.29;100.00;100613.44;5059284;28;20643;-76
2023/01/30 06:09:16;;;;;;;23.40;12.52;;;;;;;1.29;100.00;100605.47;5043248;28;20235;-77
2023/01/30 06:11:44;;;;;;;26.20;15.02;;;;;;;1.23;100.00;100601.06;5061749;28;20226;-76
2023/01/30 06:14:10;;;;;;;23.33;12.63;;;;;;;1.29;100.00;100608.13;5061189;28;20641;-76
2023/01/30 06:16:37;;;;;;;24.48;13.25;;;;;;;1.23;100.00;100603.72;5059838;28;20213;-75
2023/01/30 06:19:04;;;;;;;26.38;14.70;;;;;;;1.27;100.00;100606.34;5059242;28;20204;-75
2023/01/30 06:21:31;;;;;;;22.00;12.60;;;;;;;1.30;100.00;100593.09;5059117;28;20326;-75
2023/01/30 06:23:57;;;;;;;27.85;14.63;;;;;;;1.22;100.00;100586.06;5058580;28;20552;-75
2023/01/30 06:26:24;;;;;;;41.28;15.73;;;;;;;1.24;100.00;100581.63;5056378;28;20705;-75
2023/01/30 06:28:52;;;;;;;26.10;13.80;;;;;;;1.21;100.00;100588.69;5057053;28;20217;-75
2023/01/30 06:31:20;;;;;;;22.42;10.73;;;;;;;1.21;100.00;100591.34;5057687;28;20231;-76
2023/01/30 06:33:48;;;;;;;27.33;12.35;;;;;;;1.20;100.00;100594.91;5057075;28;20303;-75
2023/01/30 06:36:14;;;;;;;26.25;13.65;;;;;;;1.15;100.00;100586.94;5057782;28;20311;-75
2023/01/30 06:38:41;;;;;;;23.60;13.75;;;;;;;1.10;100.00;100595.81;5058311;28;20662;-75
2023/01/30 06:41:07;;;;;;;17.67;9.77;;;;;;;1.13;100.00;100590.50;5058246;28;20253;-75
2023/01/30 06:43:34;;;;;;;32.45;15.32;;;;;;;1.11;100.00;100602.88;5058003;28;20215;-75
2023/01/30 06:46:02;;;;;;;25.05;12.50;;;;;;;1.12;100.00;100607.31;5058633;28;20230;-75
2023/01/30 06:48:29;;;;;;;24.23;13.50;;;;;;;1.17;100.00;100609.03;5057548;28;20227;-74
2023/01/30 06:50:56;;;;;;;20.50;11.82;;;;;;;1.22;100.00;100609.94;5058853;28;20199;-75
2023/01/30 06:53:28;;;;;;;25.42;15.02;;;;;;;1.24;100.00;100626.72;5058978;28;20266;-76
2023/01/30 06:55:55;;;;;;;27.80;15.65;;;;;;;1.25;100.00;100612.56;5065590;28;20266;-74
2023/01/30 06:58:22;;;;;;;21.02;12.00;;;;;;;1.32;100.00;100623.16;5074725;28;20222;-76
2023/01/30 07:00:48;;;;;;;25.63;13.60;;;;;;;1.29;100.00;100628.47;5075139;28;20333;-77
2023/01/30 07:03:17;;;;;;;21.65;11.63;;;;;;;1.35;100.00;100633.75;5075296;28;20216;-76
2023/01/30 07:05:46;;;;;;;23.92;12.43;;;;;;;1.39;100.00;100649.66;5058837;28;20225;-75
2023/01/30 07:08:14;;;;;;;24.15;12.43;;;;;;;1.42;100.00;100646.09;5056295;28;20202;-75
2023/01/30 07:10:41;;;;;;;23.35;12.98;;;;;;;1.42;100.00;100662.91;5057268;28;20269;-75
2023/01/30 07:13:08;;;;;;;24.90;13.98;;;;;;;1.40;100.00;100645.22;5056889;28;20687;-73
2023/01/30 07:15:35;;;;;;;24.17;12.02;;;;;;;1.48;100.00;100647.88;5056253;28;20230;-75
2023/01/30 07:18:01;;;;;;;23.10;13.10;;;;;;;1.47;100.00;100670.88;5054897;28;20203;-76
2023/01/30 07:20:30;;;;;;;23.52;14.02;;;;;;;1.43;100.00;100663.81;5057376;28;20292;-75
2023/01/30 07:22:57;;;;;;;22.23;12.00;;;;;;;1.50;100.00;100675.28;5060239;28;20258;-75
2023/01/30 07:25:25;;;;;;;21.00;12.55;;;;;;;1.55;100.00;100654.91;5057052;28;20253;-75
2023/01/30 07:27:52;;;;;;;22.48;12.52;;;;;;;1.55;100.00;100631.88;5055632;28;20748;-76
2023/01/30 07:30:19;;;;;;;21.50;11.05;;;;;;;1.57;100.00;100647.81;5055378;28;20198;-74
2023/01/30 07:32:49;;;;;;;21.42;12.80;;;;;;;1.58;100.00;100653.13;5054777;28;20552;-76
2023/01/30 07:35:16;;;;;;;20.05;11.00;;;;;;;1.58;100.00;100647.81;5057580;28;20227;-76
2023/01/30 07:37:46;;;;;;;23.17;13.18;;;;;;;1.51;100.00;100645.19;5063785;28;20213;-75
2023/01/30 07:40:13;;;;;;;22.33;11.82;;;;;;;1.59;100.00;100636.31;5062419;28;20230;-76
2023/01/30 07:42:40;;;;;;;24.30;13.63;;;;;;;1.59;100.00;100644.25;5060083;28;20315;-74
2023/01/30 07:45:08;;;;;;;22.10;11.70;;;;;;;1.55;100.00;100646.94;5063096;28;20224;-74
2023/01/30 07:47:35;;;;;;;20.38;12.20;;;;;;;1.57;100.00;100663.75;5063766;28;20204;-74
2023/01/30 07:50:01;;;;;;;19.35;11.48;;;;;;;1.56;100.00;100670.84;5064887;28;20205;-75
2023/01/30 07:52:28;;;;;;;22.90;12.55;;;;;;;1.61;100.00;100654.88;5057324;28;20234;-75
2023/01/30 07:54:56;;;;;;;22.00;12.40;;;;;;;1.60;100.00;100645.13;5055025;28;20237;-75
2023/01/30 07:57:23;;;;;;;21.23;12.60;;;;;;;1.70;100.00;100652.19;5059095;28;20657;-75
2023/01/30 07:59:49;;;;;;;19.17;10.27;;;;;;;1.74;100.00;100642.41;5056370;28;20208;-75
2023/01/30 08:02:16;;;;;;;20.92;12.70;;;;;;;1.68;100.00;100646.00;5057628;28;20246;-75
2023/01/30 08:04:42;;;;;;;24.50;12.82;;;;;;;1.72;100.00;100647.75;5058429;28;20301;-75
2023/01/30 08:07:09;;;;;;;15.95;9.88;;;;;;;1.74;100.00;100645.06;5058463;28;20295;-74
2023/01/30 08:09:35;;;;;;;20.35;11.70;;;;;;;1.69;100.00;100615.88;5056619;28;20291;-75
2023/01/30 08:12:04;;;;;;;20.92;11.13;;;;;;;1.70;100.00;100604.38;5056945;28;20634;-75
2023/01/30 08:14:30;;;;;;;17.73;9.45;;;;;;;1.73;100.00;100593.75;5061528;28;20252;-75
2023/01/30 08:16:57;;;;;;;21.38;13.50;;;;;;;1.72;100.00;100607.91;5066314;28;20203;-76
2023/01/30 08:19:23;;;;;;;23.50;12.65;;;;;;;1.72;100.00;100630.91;5064751;28;20230;-75
2023/01/30 08:21:50;;;;;;;22.30;11.52;;;;;;;1.70;100.00;100625.63;5061624;28;20264;-76
2023/01/30 08:24:17;;;;;;;22.50;12.40;;;;;;;1.74;100.00;100630.03;5057610;28;20602;-77
2023/01/30 08:26:43;;;;;;;24.45;12.38;;;;;;;1.76;100.00;100628.22;5055184;28;20695;-76
2023/01/30 08:29:11;;;;;;;24.17;12.52;;;;;;;1.70;100.00;100620.31;5054659;28;20682;-75
2023/01/30 08:31:38;;;;;;;21.70;12.48;;;;;;;1.70;100.00;100615.00;5054157;28;20216;-75
2023/01/30 08:34:04;;;;;;;25.92;12.57;;;;;;;1.71;100.00;100616.75;5067951;28;20275;-74
2023/01/30 08:36:31;;;;;;;21.77;10.60;;;;;;;1.82;100.00;100630.84;5063679;28;20290;-75
2023/01/30 08:38:57;;;;;;;21.08;12.20;;;;;;;1.80;100.00;100624.66;5062520;28;20215;-73
2023/01/30 08:41:26;;;;;;;22.15;11.00;;;;;;;1.86;100.00;100621.13;5069387;28;20288;-74
2023/01/30 08:43:52;;;;;;;16.85;10.25;;;;;;;1.92;100.00;100617.53;5072140;28;20207;-74
2023/01/30 08:46:21;;;;;;;18.92;10.30;;;;;;;1.97;100.00;100607.78;5072180;28;20247;-74
2023/01/30 08:48:48;;;;;;;16.33;10.38;;;;;;;1.96;100.00;100609.53;5071480;28;20209;-74
2023/01/30 08:51:15;;;;;;;23.85;13.75;;;;;;;1.98;100.00;100601.56;5062168;28;20289;-76
2023/01/30 08:53:41;;;;;;;15.07;8.68;;;;;;;1.99;100.00;100609.53;5055296;28;20546;-75
2023/01/30 08:56:08;;;;;;;14.35;8.65;;;;;;;1.98;100.00;100596.22;5067904;22;20317;-72
2023/01/30 08:58:34;;;;;;;15.80;8.52;;;;;;;2.00;100.00;100590.00;5060655;28;20200;-73
2023/01/30 09:01:05;;;;;;;18.42;11.32;;;;;;;2.07;100.00;100577.56;5053741;28;20216;-73
2023/01/30 09:03:33;;;;;;;17.73;10.02;;;;;;;2.13;100.00;100582.84;5054001;28;20587;-73
2023/01/30 09:06:00;;;;;;;17.90;10.93;;;;;;;2.14;100.00;100571.31;5055145;28;20244;-73
2023/01/30 09:08:26;;;;;;;13.93;9.57;;;;;;;2.17;100.00;100573.97;5061624;28;20199;-71
2023/01/30 09:10:57;;;;;;;13.77;8.02;;;;;;;2.22;100.00;100573.91;5066875;28;20291;-72
2023/01/30 09:13:23;;;;;;;12.50;7.25;;;;;;;2.23;100.00;100573.00;5070100;28;20230;-71
2023/01/30 09:15:50;;;;;;;13.10;8.25;;;;;;;2.22;100.00;100582.75;5060498;28;20716;-75
2023/01/30 09:18:16;;;;;;;10.40;6.28;;;;;;;2.26;100.00;100591.56;5054093;28;20213;-72
2023/01/30 09:20:44;;;;;;;14.77;8.63;;;;;;;2.29;100.00;100587.13;5056416;28;20231;-72
2023/01/30 09:23:11;;;;;;;9.00;6.15;;;;;;;2.35;100.00;100580.88;5058282;28;20226;-73
2023/01/30 09:25:37;;;;;;;13.10;7.63;;;;;;;2.37;100.00;100584.41;5059513;28;20224;-73
2023/01/30 09:28:04;;;;;;;12.57;7.45;;;;;;;2.51;100.00;100581.63;5059007;28;20203;-73
2023/01/30 09:30:30;;;;;;;11.88;6.35;;;;;;;2.55;100.00;100590.44;5059975;28;20675;-72
2023/01/30 09:32:57;;;;;;;8.73;5.53;;;;;;;2.53;100.00;100570.97;5059141;28;20213;-73
2023/01/30 09:35:23;;;;;;;12.43;6.57;;;;;;;2.53;100.00;100560.34;5058066;28;20573;-72
2023/01/30 09:37:53;;;;;;;8.27;5.75;;;;;;;2.52;100.00;100585.16;5058374;28;20646;-74
2023/01/30 09:40:23;;;;;;;8.45;5.90;;;;;;;2.55;100.00;100570.06;5059063;28;20204;-74
2023/01/30 09:43:12;;;;;;;8.65;6.00;;;;;;;2.61;100.00;100585.09;5060181;28;20228;-73
2023/01/30 09:46:05;;;;;;;13.45;5.80;;;;;;;2.62;100.00;100606.34;5060431;28;20247;-73
2023/01/30 09:48:38;;;;;;;8.48;5.93;;;;;;;2.61;100.00;100582.41;5058897;28;20193;-72
2023/01/30 09:51:22;;;;;;;10.13;6.00;;;;;;;2.65;100.00;100594.78;5059741;28;20230;-73
2023/01/30 09:54:14;;;;;;;9.93;6.50;;;;;;;2.70;100.00;100588.53;5059537;28;20291;-72
2023/01/30 09:56:40;;;;;;;8.30;5.50;;;;;;;2.78;100.00;100582.22;5052999;28;20245;-73
2023/01/30 09:59:19;;;;;;;8.15;5.65;;;;;;;2.80;100.00;100580.44;5053955;28;20581;-73
2023/01/30 10:01:54;;;;;;;6.70;4.07;;;;;;;2.88;100.00;100559.97;5054536;28;20195;-75
2023/01/30 10:04:31;;;;;;;8.20;4.53;;;;;;;2.91;100.00;100557.25;5054897;28;20270;-73
2023/01/30 10:07:06;;;;;;;6.25;4.70;;;;;;;3.06;100.00;100535.81;5058753;28;20231;-71
2023/01/30 10:09:46;;;;;;;7.43;3.35;;;;;;;3.24;100.00;100520.50;5055307;28;20290;-72
2023/01/30 10:12:40;;;;;;;6.05;4.00;;;;;;;3.45;100.00;100528.19;5058328;28;20207;-72
2023/01/30 10:15:22;;;;;;;6.07;4.03;;;;;;;3.52;100.00;100535.16;5054344;28;20196;-73
2023/01/30 10:18:04;;;;;;;5.65;3.95;;;;;;;3.55;100.00;100524.50;5053390;28;20191;-73
2023/01/30 10:20:41;;;;;;;5.82;3.60;;;;;;;3.70;100.00;100519.84;5054698;28;20219;-73
2023/01/30 10:23:35;;;;;;;6.05;4.00;;;;;;;3.68;100.00;100529.63;5065161;28;20232;-72
2023/01/30 10:26:09;;;;;;;4.15;3.03;;;;;;;3.48;100.00;100538.81;5062263;28;20250;-73
2023/01/30 10:28:41;;;;;;;5.47;3.53;;;;;;;3.61;100.00;100527.97;5060403;28;20285;-73
2023/01/30 10:31:12;;;;;;;5.53;3.63;;;;;;;3.68;100.00;100541.16;5058713;28;20190;-73
2023/01/30 10:33:44;;;;;;;4.38;3.55;;;;;;;3.88;100.00;100538.19;5059439;28;20266;-72
2023/01/30 10:36:14;;;;;;;6.50;3.40;;;;;;;3.93;100.00;100523.03;5060704;28;20227;-73
2023/01/30 10:38:46;;;;;;;3.67;2.95;;;;;;;4.22;100.00;100532.31;5060340;28;20587;-72
2023/01/30 10:41:23;;;;;;;4.65;2.90;;;;;;;4.52;100.00;100517.56;5056491;28;20188;-72
2023/01/30 10:43:59;;;;;;;7.40;2.20;;;;;;;5.29;100.00;100510.66;5057917;28;20299;-73
2023/01/30 10:46:46;;;;;;;3.65;2.72;;;;;;;5.78;100.00;100501.50;5063642;28;20223;-73
2023/01/30 10:49:18;;;;;;;2.97;2.40;;;;;;;6.03;100.00;100508.97;5062464;28;20264;-71
2023/01/30 10:51:53;;;;;;;4.95;3.13;;;;;;;5.19;100.00;100504.63;5057570;28;20183;-72
2023/01/30 10:54:26;;;;;;;4.28;3.00;;;;;;;4.94;100.00;100506.06;5057623;28;20199;-73
2023/01/30 10:57:01;;;;;;;3.63;2.63;;;;;;;4.75;100.00;100522.44;5056940;28;20235;-75
2023/01/30 10:59:42;;;;;;;4.07;2.75;;;;;;;4.73;100.00;100529.59;5057006;28;20191;-75
2023/01/30 11:02:24;;;;;;;3.47;2.58;;;;;;;4.74;100.00;100525.13;5068634;28;20577;-72
2023/01/30 11:04:58;;;;;;;3.28;2.40;;;;;;;4.87;100.00;100523.13;5070807;28;20190;-72
2023/01/30 11:07:24;;;;;;;3.10;2.67;;;;;;;4.89;100.00;100505.28;5067297;28;20260;-73
2023/01/30 11:09:51;;;;;;;2.67;2.00;;;;;;;4.90;100.00;100520.38;5057824;28;20207;-72
2023/01/30 11:12:19;;;;;;;3.13;2.05;;;;;;;4.90;100.00;100525.72;5060183;28;20206;-74
2023/01/30 11:14:58;;;;;;;4.95;2.70;;;;;;;4.90;100.00;100512.38;5063468;28;20212;-74
2023/01/30 11:17:34;;;;;;;3.92;2.42;;;;;;;4.95;100.00;100522.06;5060730;28;20210;-72
2023/01/30 11:20:07;;;;;;;3.38;2.60;;;;;;;5.04;100.00;100534.31;5060239;28;20207;-73
2023/01/30 11:22:35;;;;;;;6.15;3.38;;;;;;;5.29;100.00;100532.03;5060367;28;20585;-72
2023/01/30 11:25:06;;;;;;;2.58;1.98;;;;;;;5.22;100.00;100533.06;5061472;28;20231;-72
2023/01/30 11:27:34;;;;;;;3.13;2.05;;;;;;;5.27;100.00;100522.28;5057759;28;20250;-73